WetterOnline ( https://www.wetteronline.de )

Wetter aktuell Schmallenberg

Aktuelles Wetter: Kahler Asten (841m)

6-stündlich | Neueste Meldungen
Ortszeit Temperatur Wetter
Sa, 13.07. 14:00 12.3° C bewölkt
Sa, 13.07. 8:00 8.1° C Sprühregen
Sa, 13.07. 2:00 8.4° C Nebel
Fr, 12.07. 20:00 10.7° C Nebel
Fr, 12.07. 14:00 16.1° C Nebel
Fr, 12.07. 8:00 13.6° C bedeckt
Fr, 12.07. 2:00 13.4° C wolkig
Do, 11.07. 20:00 17.0° C bewölkt
Ortszeit Temperatur Wetter
Sa, 13.07. 17:00 12.8° C bewölkt
Sa, 13.07. 16:50 12.8° C bewölkt
Sa, 13.07. 16:40 12.5° C bewölkt
Sa, 13.07. 16:30 13.3° C wolkig
Sa, 13.07. 16:20 13.3° C wolkig
Sa, 13.07. 16:10 13.3° C bewölkt
Sa, 13.07. 16:00 12.9° C wolkig
Sa, 13.07. 15:30 14.3° C wolkig
Sa, 13.07. 15:00 13.7° C wolkig
Sa, 13.07. 14:30 12.8° C bewölkt
Sa, 13.07. 14:00 12.3° C bewölkt
Ortszeit Relative Feuchte Sichtweite
Sa, 13.07. 14:00 76% 60 km
Sa, 13.07. 8:00 100% 100 m
Sa, 13.07. 2:00 100% 100 m
Fr, 12.07. 20:00 100% 0.2 km
Fr, 12.07. 14:00 100% 4.5 km
Fr, 12.07. 8:00 91% 35 km
Fr, 12.07. 2:00 82% 50 km
Do, 11.07. 20:00 71% >70 km
Ortszeit Relative Feuchte Sichtweite
Sa, 13.07. 17:00 73% >70 km
Sa, 13.07. 16:50 73% -
Sa, 13.07. 16:40 72% -
Sa, 13.07. 16:30 69% >70 km
Sa, 13.07. 16:20 69% -
Sa, 13.07. 16:10 72% -
Sa, 13.07. 16:00 71% 60 km
Sa, 13.07. 15:30 67% 55 km
Sa, 13.07. 15:00 69% 50 km
Sa, 13.07. 14:30 73% 60 km
Sa, 13.07. 14:00 76% 60 km
Ortszeit Niederschlagsmenge Niederschlagsart
Sa, 13.07. 14:00 0.1 l/m2 in 6 Std. Regen
Sa, 13.07. 8:00 0.1 l/m2 in 12 Std. Regen
Sa, 13.07. 2:00 0.1 l/m2 in 6 Std. Regen
Fr, 12.07. 20:00 4 l/m2 in 12 Std. Regen
Fr, 12.07. 14:00 4 l/m2 in 6 Std. Regen
Fr, 12.07. 8:00 0.1 l/m2 in 12 Std. Regen
Fr, 12.07. 2:00 0.0 l/m2 in 6 Std. -
Do, 11.07. 20:00 0.0 l/m2 in 12 Std. -
Ortszeit Niederschlagsmenge Niederschlagsart
Sa, 13.07. 17:00 0.0 l/m2 in 1 Std. -
Sa, 13.07. 16:50 keine Meldung -
Sa, 13.07. 16:40 keine Meldung -
Sa, 13.07. 16:30 0.0 l/m2 in 30 Min -
Sa, 13.07. 16:20 keine Meldung -
Sa, 13.07. 16:10 keine Meldung -
Sa, 13.07. 16:00 0.0 l/m2 in 1 Std. -
Sa, 13.07. 15:30 0.0 l/m2 in 30 Min -
Sa, 13.07. 15:00 0.0 l/m2 in 1 Std. -
Sa, 13.07. 14:30 0.0 l/m2 in 30 Min -
Sa, 13.07. 14:00 0.0 l/m2 in 1 Std. Regen
Ortszeit Stärke Spitze Richtung
km/h Bft. km/h Grad Sektor
Sa, 13.07. 14:00 22 4 40 260° W
Sa, 13.07. 8:00 18 3 43 240° SW
Sa, 13.07. 2:00 22 4 50 260° W
Fr, 12.07. 20:00 35 5 63 270° W
Fr, 12.07. 14:00 25 4 40 170° S
Fr, 12.07. 8:00 20 4 31 90° O
Fr, 12.07. 2:00 17 3 24 50° NO
Do, 11.07. 20:00 11 2 40 340° N
Ortszeit Stärke Spitze Richtung
km/h Bft. km/h Grad Sektor
Sa, 13.07. 17:00 20 4 35 250° W
Sa, 13.07. 16:50 20 4 - 250° W
Sa, 13.07. 16:40 22 4 - 260° W
Sa, 13.07. 16:30 18 3 36 230° SW
Sa, 13.07. 16:20 18 3 - 230° SW
Sa, 13.07. 16:10 18 3 - 240° SW
Sa, 13.07. 16:00 20 4 43 230° SW
Sa, 13.07. 15:30 25 4 43 240° SW
Sa, 13.07. 15:00 22 4 37 240° SW
Sa, 13.07. 14:30 22 4 40 250° W
Sa, 13.07. 14:00 22 4 36 260° W
Ortszeit Untergrenze Bedeckung Gattung
total tief tief mittel hoch
Sa, 13.07. 14:00 570 m 7/8 7/8 - - -
Sa, 13.07. 8:00 <30 m 7/8 0/8 - - -
Sa, 13.07. 2:00 <30 m 8/8 0/8 - - -
Fr, 12.07. 20:00 <30 m 8/8 0/8 - - -
Fr, 12.07. 14:00 <30 m 8/8 0/8 - - -
Fr, 12.07. 8:00 1800 m 8/8 8/8 - - -
Fr, 12.07. 2:00 2100 m 6/8 6/8 - - -
Do, 11.07. 20:00 5100 m 7/8 7/8 - - -
Ortszeit Bedeckungsgrad in Achtel und Wolkenuntergrenze
Sa, 13.07. 17:00 2(780m) 7(1080m)
Sa, 13.07. 16:50 2(780m) 7(1080m)
Sa, 13.07. 16:40 7
Sa, 13.07. 16:30 1(870m) 6(1110m) 6(6000m)
Sa, 13.07. 16:20 1(870m) 6(1110m) 6(6000m)
Sa, 13.07. 16:10 7
Sa, 13.07. 16:00 1(750m) 6(1080m)
Sa, 13.07. 15:30 1(750m) 4(1080m) 5(5700m)
Sa, 13.07. 15:00 5(690m) 6(930m)
Sa, 13.07. 14:30 7(630m) 7(780m)
Sa, 13.07. 14:00 5(570m) 7(780m)
Ortszeit Stationsdruck (hPa) Tendenz (hPa in 3 Std.)
Sa, 13.07. 14:00 915 + 0,7
Sa, 13.07. 8:00 914 + 1,0
Sa, 13.07. 2:00 913 + 0,3
Fr, 12.07. 20:00 912 + 0,2
Fr, 12.07. 14:00 912 - 1,4
Fr, 12.07. 8:00 914 - 2,4
Fr, 12.07. 2:00 919 - 1,2
Do, 11.07. 20:00 920 - 0,2
Ortszeit Stationsdruck (hPa) Tendenz (hPa in 3 Std.)
Sa, 13.07. 17:00 916 + 0,4
Sa, 13.07. 16:50 916 keine Meldung
Sa, 13.07. 16:40 915 keine Meldung
Sa, 13.07. 16:30 915 + 0,3
Sa, 13.07. 16:20 915 keine Meldung
Sa, 13.07. 16:10 915 keine Meldung
Sa, 13.07. 16:00 915 + 0,5
Sa, 13.07. 15:30 915 + 0,5
Sa, 13.07. 15:00 915 + 0,7
Sa, 13.07. 14:30 915 + 0,7
Sa, 13.07. 14:00 915 + 0,7
Ortszeit Schneehöhe (cm)
Sa, 13.07. 14:00 -
Sa, 13.07. 8:00 -
Sa, 13.07. 2:00 -
Fr, 12.07. 20:00 -
Fr, 12.07. 14:00 -
Fr, 12.07. 8:00 -
Fr, 12.07. 2:00 -
Do, 11.07. 20:00 -
Ortszeit Schneehöhe (cm)
Sa, 13.07. 17:00 -
Sa, 13.07. 16:50 0
Sa, 13.07. 16:40 -
Sa, 13.07. 16:30 -
Sa, 13.07. 16:20 0
Sa, 13.07. 16:10 -
Sa, 13.07. 16:00 -
Sa, 13.07. 15:30 -
Sa, 13.07. 15:00 -
Sa, 13.07. 14:30 -
Sa, 13.07. 14:00 -
Link zu dieser Seite / Seite empfehlen

Das Wetter in ...